Tiempo atmosférico en la estación meteorológica de Écija, Sevilla (130 m.)



Fecha
DESCASC
Temp. máxima en grados centígrados (hora)
DESCASC
Temp. mínima en grados centígrados (hora)
DESCASC
Temp. media en grados centígrados
DESCASC
Racha de viento máxima en m/sg (hora)
DESCASC
Velocidad máxima media en intervalos de 10 minutos(hora)
DESCASC
Precipitaciones diarias en mm
DESCASC
Precipitaciones de 00:00 a 06:00 en mm
DESCASC
Precipitaciones de 06:00 a 12:00 en mm
DESCASC
Precipitaciones de 12:00 a 18:00 en mm
DESCASC
Precipitaciones de 18:00 a 24:00 en mm
DESCASC
15-07-2018 28.6 (17:50) 13.7 (05:00) 21.2 11.94 (22:10) 7.5 (20:50) 0 0 0 0 0
14-07-2018 30.9 (17:20) 14.8 (07:20) 22.8 9.72 (16:20) 6.11 (20:50) 0 0 0 0 0
13-07-2018 31 (18:10) 14.9 (06:50) 22.9 8.61 (17:50) 5 (23:50) 0 0 0 0 0
12-07-2018 30.5 (17:10) 17 (00:00) 23.8 10.28 (20:50) 5.28 (20:50) 0 0 0 0 0
11-07-2018 32.2 (16:30) 16.7 (00:00) 24.5 10.28 (16:50) 5.83 (16:50) 0 0 0 0 0
10-07-2018 34.2 (17:10) 19.1 (00:00) 26.7 10 (22:50) 6.67 (22:50) 0 0 0 0 0
09-07-2018 37.5 (17:50) 19.7 (00:00) 28.6 8.61 (00:10) 6.11 (22:50) 0 0 0 0 0
08-07-2018 36.7 (18:20) 18 (07:00) 27.4 8.33 (22:10) 5.83 (23:50) 0 0 0 0 0
07-07-2018 37.4 (19:30) 17.3 (00:00) 27.4 8.89 (23:00) 6.39 (23:00) 0 0 0 0 0
06-07-2018 35.5 (17:40) 16.2 (00:00) 25.9 8.89 (23:30) 6.39 (23:40) 0 0 0 0 0
05-07-2018 32.5 (19:00) 16 (07:10) 24.3 9.17 (00:30) 6.67 (00:30) 0 0 0 0 0
04-07-2018 30.5 (18:00) 15.8 (07:00) 23.2 13.33 (18:40) 6.94 (23:30) 0 0 0 0 0
03-07-2018 34 (16:40) 15 (07:10) 24.5 10 (23:10) 6.67 (23:00) 0 0 0 0 0
02-07-2018 29.3 (18:20) 14.4 (06:40) 21.8 8.06 (16:30) 5 (23:59) 0 0 0 0 0
01-07-2018 28.1 (17:50) 16.1 (00:00) 22.1 10 (18:20) 5.83 (20:00) 0 0 0 0 0
30-06-2018 29.2 (16:00) 16.3 (07:20) 22.8 11.67 (17:30) 6.67 (16:50) 0 0 0 0 0
29-06-2018 -- (--) -- (--) -- 9.17 (21:50) 5.83 (21:50) 0 0 0 0 0
28-06-2018 29.8 (19:00) 16.3 (00:00) 23 10.28 (17:00) 6.67 (00:50) 0 0 0 0 0
27-06-2018 32.9 (17:10) 17.5 (00:00) 25.2 10 (21:30) 6.39 (23:10) 0 0 0 0 0
26-06-2018 32.3 (17:40) 16.8 (00:00) 24.5 11.39 (22:20) 6.39 (23:30) 0 0 0 0 0
25-06-2018 31.6 (16:30) 19 (00:00) 25.3 10 (00:10) 6.11 (00:10) 0 0 0 0 0
24-06-2018 37.1 (18:00) 17.6 (00:00) 27.3 11.39 (21:00) 7.22 (23:40) 0 0 0 0 0
23-06-2018 37 (17:20) 17.6 (00:00) 27.3 8.89 (19:40) 6.39 (19:20) 0 0 0 0 0
22-06-2018 35.4 (19:40) 18.3 (07:20) 26.9 8.61 (21:30) 5.83 (23:10) 0 0 0 0 0
21-06-2018 35.1 (18:50) 19.4 (00:00) 27.2 11.11 (22:10) 5.83 (22:10) 0 0 0 0 0
20-06-2018 35.6 (17:10) 18.9 (00:00) 27.2 10.83 (15:50) 6.11 (23:00) 0 0 0 0 0
19-06-2018 33.8 (15:10) 19.9 (00:00) 26.8 11.94 (16:40) 7.78 (15:30) 0 0 0 0 0
18-06-2018 38.2 (17:50) 18.9 (00:00) 28.6 9.72 (21:40) 6.11 (21:30) 0 0 0 0 0
17-06-2018 38 (19:10) 17.5 (00:00) 27.8 7.78 (23:10) 5.56 (23:10) 0 0 0 0 0

Gráficas

Temp. máximas Temp. mínimas Temp. medias Precipitaciones Rachas de viento máximas Velocidades máximas media en intervalos de 10 minutos

Datos horarios

Fecha y hora oficial Temperatura (ºC) Velocidad del viento (km/h) Dirección del viento Racha (km/h) Dirección de racha Precipitación (mm) Presión (hPa) Tendencia (hPa) Humedad (%)
2018-07-16 23:00:00 26.5 8 Sudoeste 10 Sudoeste 0 1001.3 0.5 42
2018-07-16 22:00:00 27.9 4 Sudoeste 6 Sur 0 1000.9 -0.1 39
2018-07-16 21:00:00 31.1 3 Norte 8 Norte 0 1000.7 -1.1 36
2018-07-16 20:00:00 32.6 0 Calma 12 Noroeste 0 1000.8 -1.5 35
2018-07-16 19:00:00 32.3 4 Nordeste 16 Noroeste 0 1001 -1.7 37
2018-07-16 18:00:00 31.2 8 Norte 17 Norte 0 1001.8 -2 38
2018-07-16 17:00:00 30.8 10 Nordeste 24 Noroeste 0 1002.3 -2.3 38
2018-07-16 16:00:00 30 10 Noroeste 21 Noroeste 0 1002.7 -2.7 40
2018-07-16 15:00:00 29.1 8 Nordeste 20 Nordeste 0 1003.8 -1.6 41
2018-07-16 14:00:00 27.9 5 Sudeste 16 Este 0 1004.6 -0.7 46
2018-07-16 13:00:00 26.1 5 Este 17 Este 0 1005.4 -0.5 52
2018-07-16 12:00:00 24.8 6 Sur 14 Sudeste 0 1005.4 -0.2 60
2018-07-16 11:00:00 23.2 3 Sudoeste 10 Este 0 1005.3 -0.3 67
2018-07-16 10:00:00 21.3 4 Sudeste 8 Sudeste 0 1005.9 0.6 78
2018-07-16 09:00:00 18.5 4 Sudeste 7 Este 0 1005.6 0.4 87
2018-07-16 08:00:00 16.1 0 Calma 4 Sur 0 1005.6 0.5 93
2018-07-16 07:00:00 15.3 0 Calma 2 Sudoeste 0 1005.3 0.1 92
2018-07-16 06:00:00 16.1 0 Calma 8 Sudeste 0 1005.2 0 90
2018-07-16 05:00:00 17.1 3 Sudeste 8 Sur 0 1005.1 -0.2 87
2018-07-16 04:00:00 18.2 3 Sudoeste 19 Sudoeste 0 1005.2 -0.2 85
2018-07-16 03:00:00 18.6 12 Sudoeste 27 Sudoeste 0 1005.2 0.1 83
2018-07-16 02:00:00 18.8 12 Sudoeste 20 Sudoeste 0 1005.3 0.8 82
2018-07-16 01:00:00 19.2 13 Sudoeste 35 Sudoeste 0 1005.4 1.7 77
2018-07-16 00:00:00 19.9 17 Sudoeste 41 Oeste 0 1005.1 2.3 71
2018-07-15 23:00:00 20.7 24 Sudoeste 43 Sudoeste 0 1004.5 1.8 63
2018-07-15 22:00:00 21.7 20 Oeste 40 Sudoeste 0 1003.7 1.1 60
2018-07-15 21:00:00 23.4 25 Sudoeste 41 Sudoeste 0 1002.8 -0.2 55
2018-07-15 20:00:00 26.3 20 Oeste 42 Sudoeste 0 1002.7 -0.4 46
2018-07-15 19:00:00 27.6 19 Oeste 37 Sudoeste 0 1002.6 -0.9 43
2018-07-15 18:00:00 28 18 Oeste 36 Oeste 0 1003 -0.7 41
2018-07-15 17:00:00 27.9 19 Oeste 39 Oeste 0 1003.1 -1 43
2018-07-15 16:00:00 27.4 18 Oeste 37 Oeste 0 1003.5 -1.2 43
2018-07-15 15:00:00 27 18 Oeste 34 Oeste 0 1003.7 -1.4 48
2018-07-15 14:00:00 26.5 15 Sudoeste 27 Oeste 0 1004.1 -1.1 52
2018-07-15 13:00:00 25 7 Oeste 20 Sudoeste 0 1004.7 -0.9 59
2018-07-15 12:00:00 22.9 5 Oeste 15 Sudoeste 0 1005.1 -0.2 65
2018-07-15 11:00:00 21.5 4 Sudoeste 10 Sudoeste 0 1005.2 0.1 74
2018-07-15 10:00:00 18.8 4 Sudeste 10 Sudeste 0 1005.6 0.7 83
2018-07-15 09:00:00 17.2 3 Sudeste 8 Sudeste 0 1005.3 0.9 91
2018-07-15 08:00:00 15.3 3 Sudeste 6 Sudeste 0 1005.1 0.5 96
2018-07-15 07:00:00 15 0 Calma 4 Sur 0 1004.9 -0.1 97
2018-07-15 06:00:00 13.9 0 Calma 8 Este 0 1004.4 -0.8 95
2018-07-15 05:00:00 13.8 0 Calma 5 Noroeste 0 1004.6 -0.8 93
2018-07-15 04:00:00 14.8 2 Noroeste 8 Sudoeste 0 1005 -0.6 90
2018-07-15 03:00:00 15.8 4 Sur 15 Sur 0 1005.2 0 87
2018-07-15 02:00:00 17.3 8 Sudoeste 25 Oeste 0 1005.4 1.1 85
2018-07-15 01:00:00 18.3 10 Oeste 23 Sudoeste 0 1005.6 2.6 79
2018-07-15 00:00:00 19.4 6 Oeste 30 Sudoeste 0 1005.2 2.8 65
2018-07-14 23:00:00 20.8 16 Sudoeste 32 Sudoeste 0 1004.3 2.5 59
2018-07-14 22:00:00 22.7 15 Oeste 32 Sudoeste 0 1003 1.4 52
2018-07-14 21:00:00 25.3 19 Oeste 33 Sudoeste 0 1002.4 0.6 47
2018-07-14 20:00:00 27.9 18 Oeste 32 Oeste 0 1001.8 -0.3 45
2018-07-14 19:00:00 29.3 17 Oeste 33 Oeste 0 1001.6 -1 43
2018-07-14 18:00:00 29.9 18 Oeste 33 Oeste 0 1001.8 -1.4 44
2018-07-14 17:00:00 30.3 13 Oeste 35 Oeste 0 1002.1 -1.4 44
2018-07-14 16:00:00 29.8 15 Oeste 33 Oeste 0 1002.6 -1.3 46
2018-07-14 15:00:00 29.4 15 Oeste 31 Sudoeste 0 1003.2 -0.7 46
2018-07-14 14:00:00 28.3 11 Oeste 26 Oeste 0 1003.5 -0.5 49
2018-07-14 13:00:00 27.2 11 Oeste 21 Sudoeste 0 1003.9 -0.1 52
2018-07-14 12:00:00 25.6 3 Este 15 Este 0 1003.9 -0.2 60
2018-07-14 11:00:00 23.1 5 Sudeste 10 Sudeste 0 1004 0.3 68
2018-07-14 10:00:00 21.6 2 Sudeste 8 Sudeste 0 1004 0.6 76
2018-07-14 09:00:00 18.7 4 Sudeste 7 Sur 0 1004.1 0.6 88
2018-07-14 08:00:00 15.9 2 Sur 4 Sur 0 1003.7 0.4 94
2018-07-14 07:00:00 15 0 Calma 4 Sudeste 0 1003.4 0.2 91
2018-07-14 06:00:00 16 0 Calma 4 Sur 0 1003.5 0.4 91
2018-07-14 05:00:00 16.6 0 Calma 4 Sudoeste 0 1003.3 0.4 89
2018-07-14 04:00:00 18 0 Calma 9 Oeste 0 1003.2 0.6 86
2018-07-14 03:00:00 18.7 7 Sudoeste 20 Sudoeste 0 1003.1 1 80
2018-07-14 02:00:00 19.8 14 Sudoeste 25 Sudoeste 0 1002.9 1.4 72
2018-07-14 01:00:00 21 17 Sudoeste 27 Sudoeste 0 1002.6 2 64
2018-07-14 00:00:00 22.3 16 Oeste 29 Sudoeste 0 1002.1 2 61
2018-07-13 23:00:00 23.5 16 Oeste 26 Oeste 0 1001.5 1.7 57
2018-07-13 22:00:00 25.4 12 Oeste 23 Oeste 0 1000.6 0.6 50
2018-07-13 21:00:00 27.8 12 Oeste 22 Oeste 0 1000.1 -0.2 44
2018-07-13 20:00:00 29.2 12 Oeste 26 Oeste 0 999.8 -0.8 42
2018-07-13 19:00:00 30.2 12 Oeste 29 Sudoeste 0 1000 -0.9 41
2018-07-13 18:00:00 30.2 17 Oeste 31 Oeste 0 1000.3 -1.1 41
2018-07-13 17:00:00 29.2 15 Oeste 29 Oeste 0 1000.6 -1 41
2018-07-13 16:00:00 29.4 12 Oeste 31 Sudoeste 0 1000.9 -1.2 41
2018-07-13 15:00:00 28.2 13 Oeste 28 Oeste 0 1001.4 -0.9 44
2018-07-13 14:00:00 27.6 7 Oeste 26 Sudoeste 0 1001.6 -0.8 46
2018-07-13 13:00:00 25.9 7 Sudoeste 21 Sur 0 1002.1 -0.1 52
2018-07-13 12:00:00 23.9 8 Sur 16 Sur 0 1002.3 0.2 59
2018-07-13 11:00:00 22 6 Sudoeste 15 Oeste 0 1002.4 0.4 67
2018-07-13 10:00:00 21.2 4 Sur 9 Este 0 1002.2 0.5 75
2018-07-13 09:00:00 18 4 Sur 6 Sur 0 1002.1 0.7 89
2018-07-13 08:00:00 15.7 0 Calma 4 Sudeste 0 1002 0.6 93
2018-07-13 07:00:00 15.1 4 Sudeste 5 Sudeste 0 1001.7 0.1 91
2018-07-13 06:00:00 15.8 0 Calma 4 Oeste 0 1001.4 0 89
2018-07-13 05:00:00 17 3 Oeste 10 Sudoeste 0 1001.4 0 89
2018-07-13 04:00:00 17.4 6 Sudoeste 9 Sudoeste 0 1001.6 0.2 86
2018-07-13 03:00:00 17.7 6 Sudoeste 8 Sudoeste 0 1001.4 0.4 81
2018-07-13 02:00:00 19.3 3 Oeste 14 Oeste 0 1001.4 1.2 76
2018-07-13 01:00:00 20.1 4 Oeste 17 Oeste 0 1001.4 1.9 70
2018-07-13 00:00:00 21.1 9 Oeste 26 Sudoeste 0 1001 2.1 63
2018-07-12 23:00:00 22.1 13 Oeste 31 Oeste 0 1000.2 1.7 60
2018-07-12 22:00:00 23.1 16 Oeste 34 Oeste 0 999.5 1.4 59
2018-07-12 21:00:00 25.4 18 Oeste 37 Sudoeste 0 998.9 0.4 54
2018-07-12 20:00:00 27.8 18 Oeste 31 Oeste 0 998.5 -0.2 52
2018-07-12 19:00:00 29 17 Oeste 31 Noroeste 0 998.1 -1 49
2018-07-12 18:00:00 30.3 15 Oeste 28 Oeste 0 998.5 -1.4 49
2018-07-12 17:00:00 30.2 11 Oeste 28 Sudoeste 0 998.7 -1.9 49
2018-07-12 16:00:00 29.7 10 Oeste 23 Sudoeste 0 999.1 -2.4 52
2018-07-12 15:00:00 28 10 Oeste 24 Oeste 0 999.9 -1.8 56
2018-07-12 14:00:00 26.4 7 Sudoeste 20 Oeste 0 1000.6 -1.2 61
2018-07-12 13:00:00 24.5 8 Oeste 20 Sudoeste 0 1001.5 0.1 69
2018-07-12 12:00:00 22.1 9 Oeste 18 Oeste 0 1001.7 0.8 78
2018-07-12 11:00:00 20.8 8 Oeste 17 Sudoeste 0 1001.8 1 83
2018-07-12 10:00:00 20.1 9 Sudoeste 17 Sudoeste 0 1001.4 0.7 87
2018-07-12 09:00:00 19.1 10 Sudoeste 18 Sudoeste 0 1000.9 0.5 91
2018-07-12 08:00:00 18.5 10 Sudoeste 17 Sudoeste 0 1000.8 0.7 93
2018-07-12 07:00:00 17.5 6 Oeste 14 Oeste 0 1000.7 0.5 94
2018-07-12 06:00:00 17.1 6 Oeste 12 Oeste 0 1000.4 0.1 93
2018-07-12 05:00:00 17.6 6 Oeste 10 Sudoeste 0 1000.1 -0.2 90
2018-07-12 04:00:00 17.9 3 Sudoeste 11 Sudoeste 0 1000.2 -0.2 88
2018-07-12 03:00:00 18.6 3 Sudoeste 19 Sudoeste 0 1000.3 0.3 87
2018-07-12 02:00:00 19.2 12 Sudoeste 20 Sudoeste 0 1000.3 0.9 86
2018-07-12 01:00:00 20.2 8 Sudoeste 24 Sudoeste 0 1000.4 1.9 80
2018-07-12 00:00:00 21.7 8 Oeste 26 Oeste 0 1000 1.9 72
2018-07-11 23:00:00 23.2 16 Oeste 30 Oeste 0 999.4 1.7 63
2018-07-11 22:00:00 25.1 12 Oeste 29 Oeste 0 998.5 0.6 55
2018-07-11 21:00:00 27.8 17 Oeste 34 Sudoeste 0 998.1 -0.3 47
2018-07-11 20:00:00 30.1 19 Sudoeste 34 Sudoeste 0 997.7 -0.9 37
2018-07-11 19:00:00 30.9 20 Sudoeste 33 Sudoeste 0 997.9 -1.2 35
2018-07-11 18:00:00 32 18 Sudoeste 36 Oeste 0 998.4 -1.2 34
2018-07-11 17:00:00 32 15 Oeste 37 Sudoeste 0 998.6 -1.7 36
2018-07-11 16:00:00 31.8 16 Oeste 31 Sudoeste 0 999.1 -1.8 38
2018-07-11 15:00:00 30.4 16 Oeste 29 Oeste 0 999.6 -1.6 47
2018-07-11 14:00:00 28.2 12 Oeste 25 Noroeste 0 1000.3 -1.1 56
2018-07-11 13:00:00 26 12 Oeste 25 Oeste 0 1000.9 -0.6 61
2018-07-11 12:00:00 24 10 Oeste 23 Oeste 0 1001.2 -0.1 68
2018-07-11 11:00:00 22.5 9 Oeste 19 Noroeste 0 1001.4 0.4 76
2018-07-11 10:00:00 21.3 8 Oeste 17 Noroeste 0 1001.5 0.4 83
2018-07-11 09:00:00 19.7 7 Oeste 12 Oeste 0 1001.3 0.3 94
2018-07-11 08:00:00 17.4 0 Calma 4 Oeste 0 1001 -0.2 96
2018-07-11 07:00:00 16.8 3 Oeste 5 Oeste 0 1001.1 -0.2 94
2018-07-11 06:00:00 17.2 0 Calma 5 Oeste 0 1001 -0.8 94
2018-07-11 05:00:00 17.2 4 Este 8 Noroeste 0 1001.2 -0.7 91
2018-07-11 04:00:00 18.3 0 Calma 6 Oeste 0 1001.3 -0.8 87
2018-07-11 03:00:00 19.3 0 Calma 16 Sudoeste 0 1001.8 0 85
2018-07-11 02:00:00 19.9 8 Sudoeste 14 Sudoeste 0 1001.9 0.6 85
2018-07-11 01:00:00 21.2 6 Sur 27 Oeste 0 1002.1 1.3 83
2018-07-11 00:00:00 22.6 11 Oeste 34 Oeste 0 1001.8 1.6 76
2018-07-10 23:00:00 24.4 18 Oeste 36 Oeste 0 1001.3 1.3 65
2018-07-10 22:00:00 26.7 15 Oeste 34 Sudoeste 0 1000.8 0.8 55
2018-07-10 21:00:00 29.4 23 Sudoeste 33 Sudoeste 0 1000.2 -0.2 49
2018-07-10 20:00:00 32.5 16 Oeste 32 Oeste 0 1000 -0.7 43
2018-07-10 19:00:00 32.9 15 Oeste 35 Oeste 0 1000 -1 43
2018-07-10 18:00:00 33.5 17 Oeste 34 Oeste 0 1000.4 -1.3 41
2018-07-10 17:00:00 33.8 17 Oeste 33 Oeste 0 1000.7 -1.6 42
2018-07-10 16:00:00 33.4 16 Oeste 33 Oeste 0 1001 -1.8 44
2018-07-10 15:00:00 32.5 18 Sudoeste 32 Sudoeste 0 1001.7 -1.4 47
2018-07-10 14:00:00 31.1 18 Oeste 32 Oeste 0 1002.3 -0.8 52
2018-07-10 13:00:00 30 14 Oeste 28 Sudoeste 0 1002.8 -0.1 55
2018-07-10 12:00:00 28.4 14 Oeste 29 Oeste 0 1003.1 0.3 55
2018-07-10 11:00:00 27.4 9 Oeste 21 Oeste 0 1003.1 0.6 55
2018-07-10 10:00:00 25.9 7 Sudoeste 12 Sudoeste 0 1002.9 0.6 57
2018-07-10 09:00:00 24.2 0 Calma 3 Este 0 1002.8 0.6 62
2018-07-10 08:00:00 20.6 0 Calma -- -- 0 1002.5 0.6 68
2018-07-10 07:00:00 19.3 0 Calma 5 Noroeste 0 1002.3 0.5 68
2018-07-10 06:00:00 19.7 4 Noroeste 6 Noroeste 0 1002.2 0.4 65
2018-07-10 05:00:00 20.5 0 Calma 10 Sudoeste 0 1001.9 0 63
2018-07-10 04:00:00 22.8 6 Sudoeste 24 Sudoeste 0 1001.8 -0.5 60
2018-07-10 03:00:00 23.1 14 Sudoeste 25 Sudoeste 0 1001.8 0 60
2018-07-10 02:00:00 24.2 17 Sudoeste 27 Sudoeste 0 1001.9 0.7 57
2018-07-10 01:00:00 25.4 8 Sudoeste 29 Oeste 0 1002.3 1.8 53
2018-07-10 00:00:00 27.2 21 Sudoeste 31 Sudoeste 0 1001.8 1.9 50
2018-07-09 23:00:00 28.7 21 Sudoeste 31 Sudoeste 0 1001.2 1.4 48
2018-07-09 22:00:00 31.4 14 Oeste 25 Sudoeste 0 1000.5 0.6 39
2018-07-09 21:00:00 34.7 9 Oeste 21 Oeste 0 999.9 -0.2 33
2018-07-09 20:00:00 36.2 12 Oeste 30 Oeste 0 999.8 -0.6 32
2018-07-09 19:00:00 36.9 11 Oeste 26 Oeste 0 999.9 -1 32
2018-07-09 18:00:00 37 12 Oeste 25 Oeste 0 1000.1 -1.5 32
2018-07-09 17:00:00 36.8 8 Oeste 24 Sudoeste 0 1000.4 -2 33
2018-07-09 16:00:00 36.2 8 Oeste 21 Sudoeste 0 1000.9 -2.3 34
2018-07-09 15:00:00 35.3 6 Oeste 20 Oeste 0 1001.6 -2.1 38
2018-07-09 14:00:00 34.2 8 Sur 18 Sudoeste 0 1002.4 -1.7 40
2018-07-09 13:00:00 32.8 2 Oeste 14 Oeste 0 1003.2 -1 44
2018-07-09 12:00:00 31.1 3 Oeste 12 Sudoeste 0 1003.7 -0.4 47
2018-07-09 11:00:00 29.2 4 Sudoeste 13 Sudoeste 0 1004.1 0.1 52
2018-07-09 10:00:00 26.8 4 Este 7 Este 0 1004.2 0.6 61
2018-07-09 09:00:00 24.2 0 Calma 5 Sudeste 0 1004.1 0.9 67
2018-07-09 08:00:00 20.9 2 Sur 4 Sudeste 0 1004 0.7 74
2018-07-09 07:00:00 19.7 0 Calma 2 Sur 0 1003.6 0.9 74
2018-07-09 06:00:00 20.3 0 Calma 5 Norte 0 1003.2 0.5 71
2018-07-09 05:00:00 21 0 Calma 11 Sudoeste 0 1003.3 0.4 68
2018-07-09 04:00:00 23.1 11 Sudoeste 22 Sudoeste 0 1002.7 -0.2 62
2018-07-09 03:00:00 23.6 15 Sudoeste 55 Sudoeste 0 1002.7 0.2 62
2018-07-09 02:00:00 24.6 15 Sudoeste 28 Sudoeste 0 1002.9 1.1 61
2018-07-09 01:00:00 26 19 Sudoeste 31 Sudoeste 0 1002.9 1.8 57
2018-07-09 00:00:00 27.5 20 Sudoeste 30 Sudoeste 0 1002.5 2 52
2018-07-08 23:00:00 28.8 15 Oeste 30 Oeste 0 1001.8 1.6 46
2018-07-08 22:00:00 30.7 15 Oeste 25 Oeste 0 1001.1 0.8 43
2018-07-08 21:00:00 34.3 8 Oeste 26 Oeste 0 1000.5 -0.1 33
2018-07-08 20:00:00 35.4 14 Oeste 28 Oeste 0 1000.2 -0.7 33
2018-07-08 19:00:00 36 12 Oeste 28 Oeste 0 1000.3 -1 33
2018-07-08 18:00:00 36.3 9 Oeste 24 Sudoeste 0 1000.6 -1.3 33
2018-07-08 17:00:00 36 7 Oeste 25 Oeste 0 1000.9 -1.4 33
2018-07-08 16:00:00 35.6 8 Oeste 20 Oeste 0 1001.3 -1.6 34
2018-07-08 15:00:00 34.3 10 Oeste 28 Sudoeste 0 1001.9 -1.2 38
2018-07-08 14:00:00 32.7 5 Oeste 17 Oeste 0 1002.3 -0.9 44
2018-07-08 13:00:00 31.9 3 Sudoeste 17 Sur 0 1002.9 -0.1 46
2018-07-08 12:00:00 29.5 5 Sudoeste 16 Sudoeste 0 1003.1 0.4 50
2018-07-08 11:00:00 28 2 Sur 10 Sudeste 0 1003.2 1 56
2018-07-08 10:00:00 25.2 4 Sudeste 8 Sudeste 0 1003 1.1 61
2018-07-08 09:00:00 22.2 3 Sudeste 6 Sudeste 0 1002.7 1.1 67
2018-07-08 08:00:00 19.1 3 Sudeste 5 Sur 0 1002.2 1 74
2018-07-08 07:00:00 18 3 Sur 6 Sudeste 0 1001.9 0.7 74
2018-07-08 06:00:00 19.2 2 Sudoeste 5 Sudoeste 0 1001.6 0.1 72
2018-07-08 05:00:00 19.8 2 Sur 8 Norte 0 1001.2 -0.5 69
2018-07-08 04:00:00 20 0 Calma 6 Sudoeste 0 1001.2 -0.4 68
2018-07-08 03:00:00 22.3 3 Sudoeste 14 Sudoeste 0 1001.5 0.5 60
2018-07-08 02:00:00 23.1 6 Sudeste 26 Sudoeste 0 1001.7 1.4 53
2018-07-08 01:00:00 25.3 13 Sudoeste 29 Sudoeste 0 1001.6 2.5 46
2018-07-08 00:00:00 27.2 16 Sudoeste 29 Sudoeste 0 1001 2.4 42
2018-07-07 23:00:00 29.4 23 Sudoeste 32 Sudoeste 0 1000.3 2.2 39
2018-07-07 22:00:00 30.5 8 Oeste 15 Noroeste 0 999.1 0.9 35
2018-07-07 21:00:00 34.4 9 Oeste 19 Noroeste 0 998.6 0 30
2018-07-07 20:00:00 36 9 Noroeste 15 Oeste 0 998.1 -0.9 30
2018-07-07 19:00:00 36.8 6 Sudoeste 28 Sudoeste 0 998.2 -1.4 28
2018-07-07 18:00:00 37 3 Noroeste 17 Norte 0 998.6 -2 30
2018-07-07 17:00:00 36.2 5 Noroeste 17 Oeste 0 999 -2.3 32
2018-07-07 16:00:00 35.6 5 Sudeste 19 Este 0 999.6 -2.6 33
2018-07-07 15:00:00 33.8 5 Noroeste 18 Sudeste 0 1000.6 -1.8 36
2018-07-07 14:00:00 33.5 6 Sudeste 16 Sudeste 0 1001.3 -1.1 37
2018-07-07 13:00:00 32.1 4 Sudeste 18 Sudeste 0 1002.2 -0.5 39
2018-07-07 12:00:00 30.3 4 Sudeste 14 Sudeste 0 1002.4 -0.2 44
2018-07-07 11:00:00 28 5 Sudeste 13 Este 0 1002.4 0.1 49
2018-07-07 10:00:00 24.9 6 Sudeste 10 Sudeste 0 1002.7 0.9 57
2018-07-07 09:00:00 22.6 4 Sudeste 6 Sudeste 0 1002.6 0.9 60
2018-07-07 08:00:00 18.9 3 Sur 9 Sudoeste 0 1002.3 0.2 68
2018-07-07 07:00:00 18.2 2 Noroeste 4 Noroeste 0 1001.8 -0.2 68
2018-07-07 06:00:00 18.2 0 Calma 4 Este 0 1001.7 -0.4 63
2018-07-07 05:00:00 19.8 0 Calma 6 Sudeste 0 1002.1 -0.3 61
2018-07-07 04:00:00 20.1 5 Sudeste 7 Sudeste 0 1002 -0.7 58
2018-07-07 03:00:00 20.9 6 Sur 18 Sudoeste 0 1002.1 -0.4 55
2018-07-07 02:00:00 23.1 13 Sudoeste 18 Sudoeste 0 1002.4 0.7 50
2018-07-07 01:00:00 24.4 11 Sudoeste 24 Sudoeste 0 1002.7 1.9 49
2018-07-07 00:00:00 25.9 18 Sudoeste 32 Sudoeste 0 1002.5 2.4 47
2018-07-06 23:00:00 27.9 17 Oeste 30 Oeste 0 1001.7 1.8 40
2018-07-06 22:00:00 29.8 11 Oeste 19 Oeste 0 1000.8 0.8 35
2018-07-06 21:00:00 33 11 Oeste 19 Oeste 0 1000.1 -0.3 31
2018-07-06 20:00:00 34.1 9 Noroeste 27 Oeste 0 999.9 -1.1 30
2018-07-06 19:00:00 35.3 7 Oeste 25 Sudoeste 0 1000 -1.5 30
2018-07-06 18:00:00 35.1 12 Oeste 25 Sudoeste 0 1000.4 -1.6 30
2018-07-06 17:00:00 35.1 10 Oeste 21 Oeste 0 1001 -1.8 32
2018-07-06 16:00:00 34.5 10 Oeste 22 Sudoeste 0 1001.5 -1.9 33
2018-07-06 15:00:00 33.2 5 Noroeste 14 Nordeste 0 1002 -1.9 35
2018-07-06 14:00:00 32.4 6 Sudeste 13 Sudeste 0 1002.8 -1.2 38
2018-07-06 13:00:00 30.7 5 Sur 12 Este 0 1003.4 -0.7 44
2018-07-06 12:00:00 28.2 3 Este 12 Sudeste 0 1003.9 -0.4 50
2018-07-06 11:00:00 25.8 4 Sudeste 9 Este 0 1004 0 57
2018-07-06 10:00:00 23.5 2 Nordeste 7 Este 0 1004.1 0.4 63
2018-07-06 09:00:00 20.4 3 Sudeste 6 Sudeste 0 1004.3 0.7 72
2018-07-06 08:00:00 17.4 3 Sudeste 4 Sudeste 0 1004 0.5 79
2018-07-06 07:00:00 16.3 0 Calma 5 Sudeste 0 1003.7 0.1 79
2018-07-06 06:00:00 16.5 0 Calma 5 Sudoeste 0 1003.6 -0.5 77
2018-07-06 05:00:00 17.9 3 Sur 6 Sur 0 1003.5 -0.9 74
2018-07-06 04:00:00 18.1 0 Calma 5 Este 0 1003.6 -1.1 72
2018-07-06 03:00:00 19.2 3 Sudeste 18 Sudoeste 0 1004.1 -0.2 68
2018-07-06 02:00:00 20.5 13 Sudoeste 20 Sudoeste 0 1004.4 0.7 65
2018-07-06 01:00:00 21.7 8 Sudoeste 25 Oeste 0 1004.7 1.7 62
2018-07-06 00:00:00 23 15 Oeste 28 Oeste 0 1004.3 1.8 58
2018-07-05 23:00:00 24.6 14 Oeste 29 Oeste 0 1003.7 1.4 53
2018-07-05 22:00:00 26.9 14 Oeste 27 Oeste 0 1003 0.6 45
2018-07-05 21:00:00 30 14 Sudoeste 27 Sudoeste 0 1002.5 -0.5 37
2018-07-05 20:00:00 32.1 7 Oeste 21 Sudoeste 0 1002.3 -1.3 33
2018-07-05 19:00:00 32.1 6 Oeste 23 Oeste 0 1002.4 -1.8 33
2018-07-05 18:00:00 31.9 9 Oeste 23 Oeste 0 1003 -1.6 33
2018-07-05 17:00:00 31.5 8 Noroeste 26 Noroeste 0 1003.6 -1.6 35
2018-07-05 16:00:00 30.7 11 Noroeste 23 Oeste 0 1004.2 -1.5 36
2018-07-05 15:00:00 30.1 6 Oeste 21 Oeste 0 1004.6 -1.5 38
2018-07-05 14:00:00 28.9 6 Noroeste 18 Noroeste 0 1005.2 -1 41
2018-07-05 13:00:00 28 0 Calma 15 Oeste 0 1005.7 -0.8 45
2018-07-05 12:00:00 26.6 4 Este 13 Nordeste 0 1006.1 -0.5 49
2018-07-05 11:00:00 24.9 3 Nordeste 12 Norte 0 1006.2 -0.1 55
2018-07-05 10:00:00 23.1 4 Nordeste 12 Este 0 1006.5 0.5 64
2018-07-05 09:00:00 20.4 0 Calma 6 Sudeste 0 1006.6 1 76
2018-07-05 08:00:00 16.7 4 Sudeste 10 Sudeste 0 1006.3 0.9 86
2018-07-05 07:00:00 16.1 4 Sudeste 8 Sudeste 0 1006 0.9 84
2018-07-05 06:00:00 18.1 0 Calma 17 Sudeste 0 1005.6 0.4 80
2018-07-05 05:00:00 18.3 0 Calma 20 Oeste 0 1005.4 -- 78
2018-07-05 04:00:00 19.3 12 Oeste 26 Oeste 0 1005.1 -0.3 74
2018-07-05 03:00:00 20 15 Oeste 29 Sudoeste 0 1005.2 0.2 71
2018-07-05 02:00:00 -- 23 Sudoeste 31 Sudoeste 0 -- -- --
2018-07-05 01:00:00 20.4 20 Sudoeste 33 Oeste 0 1005.4 2.1 69
2018-07-05 00:00:00 21.2 24 Sudoeste 35 Oeste 0 1005 2.3 67
2018-07-04 23:00:00 22.5 23 Sudoeste 33 Sudoeste 0 1004.5 2.1 62
2018-07-04 22:00:00 25.8 9 Noroeste 27 Noroeste 0 1003.3 1.3 41
2018-07-04 21:00:00 28.1 17 Noroeste 32 Oeste 0 1002.7 0.5 38
2018-07-04 20:00:00 29.6 14 Noroeste 29 Noroeste 0 1002.4 -0.2 36
2018-07-04 19:00:00 30.2 13 Oeste 48 Sudoeste 0 1002 -1.2 35
2018-07-04 18:00:00 30.3 14 Noroeste 27 Noroeste 0 1002.2 -1.3 36
2018-07-04 17:00:00 29.7 12 Oeste 29 Noroeste 0 1002.6 -1.4 35
2018-07-04 16:00:00 29.1 13 Noroeste 27 Oeste 0 1003.2 -0.9 38
2018-07-04 15:00:00 28.2 12 Oeste 26 Oeste 0 1003.5 -0.6 44
2018-07-04 14:00:00 26.5 12 Oeste 26 Oeste 0 1004 0 50
2018-07-04 13:00:00 25.4 9 Oeste 24 Sudoeste 0 1004.1 0.4 53
2018-07-04 12:00:00 24.1 6 Oeste 17 Oeste 0 1004.1 0.8 58
2018-07-04 11:00:00 22.4 11 Sudoeste 20 Oeste 0 1004 1 64
2018-07-04 10:00:00 21.6 9 Oeste 19 Oeste 0 1003.7 1 69
2018-07-04 09:00:00 19.9 3 Sudeste 8 Sudeste 0 1003.3 1 76
2018-07-04 08:00:00 17.2 4 Sudeste 8 Sur 0 1003 0.8 86
2018-07-04 07:00:00 15.8 3 Sudeste 16 Sudoeste 0 1002.7 0.6 87
2018-07-04 06:00:00 16.8 5 Sudoeste 11 Sudoeste 0 1002.3 0.4 85
2018-07-04 05:00:00 16.9 0 Calma 8 Oeste 0 1002.2 0 78
2018-07-04 04:00:00 17.1 0 Calma 14 Sudoeste 0 1002.1 -0.1 74
2018-07-04 03:00:00 18.1 10 Sudoeste 16 Sudoeste 0 1001.9 0.3 72
2018-07-04 02:00:00 19.4 11 Sudoeste 21 Sudoeste 0 1002.2 1.3 69
2018-07-04 01:00:00 20.4 8 Sudoeste 31 Sudoeste 0 1002.2 2.2 63
2018-07-04 00:00:00 21.6 17 Sudoeste 36 Sudoeste 0 1001.6 2.4 62
2018-07-03 23:00:00 23.7 24 Sudoeste 35 Sudoeste 0 1000.9 1.9 56
2018-07-03 22:00:00 26.5 17 Oeste 32 Sudoeste 0 1000 1.3 48
2018-07-03 21:00:00 30.4 14 Oeste 25 Sudoeste 0 999.2 0.1 35
2018-07-03 20:00:00 32.4 17 Sudoeste 31 Sudoeste 0 999 -0.3 30
2018-07-03 19:00:00 33.7 12 Oeste 30 Oeste 0 998.7 -1.1 30
2018-07-03 18:00:00 33.9 12 Oeste 27 Sudoeste 0 999.1 -1.3 30
2018-07-03 17:00:00 33.5 8 Oeste 32 Sudeste 0 999.3 -1.7 30
2018-07-03 16:00:00 32.7 6 Sudoeste 25 Oeste 0 999.8 -1.5 32
2018-07-03 15:00:00 31 2 Norte 12 Noroeste 0 1000.4 -1.2 37
2018-07-03 14:00:00 30 6 Oeste 15 Sudeste 0 1001 -0.9 41
2018-07-03 13:00:00 28.4 8 Sur 14 Sudeste 0 1001.3 -0.9 46
2018-07-03 12:00:00 26.5 0 Calma 12 Este 0 1001.6 -0.5 53
2018-07-03 11:00:00 24.2 5 Sudeste 11 Sudeste 0 1001.9 -0.1 61
2018-07-03 10:00:00 22.5 3 Este 9 Este 0 1002.2 0.5 69
2018-07-03 09:00:00 19.6 3 Sudeste 6 Sudeste 0 1002.1 0.1 79
2018-07-03 08:00:00 16.5 2 Sudeste 5 Sudeste 0 1002 0.3 88
2018-07-03 07:00:00 15.4 0 Calma 4 Sur 0 1001.7 0 89
2018-07-03 06:00:00 15.6 2 Sur 5 Sudeste 0 1002 0 88
2018-07-03 05:00:00 16 0 Calma 5 Sur 0 1001.7 -0.4 85
2018-07-03 04:00:00 16.7 6 Sur 9 Sur 0 1001.7 -0.6 83
2018-07-03 03:00:00 17.7 7 Sur 12 Sudoeste 0 1002 -0.3 78
2018-07-03 02:00:00 19.1 4 Sudeste 20 Oeste 0 1002.1 0.7 74
2018-07-03 01:00:00 20.8 13 Oeste 29 Sudoeste 0 1002.3 1.5 68
2018-07-03 00:00:00 21.6 18 Oeste 28 Oeste 0 1002.3 1.5 62
2018-07-02 23:00:00 23.3 14 Oeste 28 Oeste 0 1001.4 0.6 55
2018-07-02 22:00:00 24.5 8 Oeste 13 Sudoeste 0 1000.8 -0.1 44
2018-07-02 21:00:00 27.6 9 Sudoeste 17 Sudoeste 0 1000.8 -0.2 40
2018-07-02 20:00:00 28.7 9 Oeste 24 Oeste 0 1000.8 -0.6 39
2018-07-02 19:00:00 29.1 9 Oeste 26 Sudoeste 0 1000.9 -0.9 40
2018-07-02 18:00:00 29.1 10 Oeste 27 Oeste 0 1001 -1.3 41
2018-07-02 17:00:00 28.2 9 Oeste 29 Sudoeste 0 1001.4 -1.2 42
2018-07-02 16:00:00 27.5 9 Oeste 28 Oeste 0 1001.8 -1.1 44
2018-07-02 15:00:00 26.8 9 Noroeste 23 Oeste 0 1002.3 -0.9 46
2018-07-02 14:00:00 25.5 9 Oeste 20 Oeste 0 1002.6 -0.3 49
2018-07-02 13:00:00 23.5 5 Oeste 15 Oeste 0 1002.9 0.1 56
2018-07-02 12:00:00 22.7 3 Oeste 17 Sudoeste 0 1003.2 0.7 63
2018-07-02 11:00:00 20.8 4 Sudoeste 13 Sudoeste 0 1002.9 0.8 73
2018-07-02 10:00:00 19.7 3 Sur 14 Sudoeste 0 1002.8 1.1 86
2018-07-02 09:00:00 17.3 0 Calma 4 Sudeste 0 1002.5 1.3 96
2018-07-02 08:00:00 15.6 0 Calma 5 Sudeste 0 1002.1 1.3 99
2018-07-02 07:00:00 14.6 0 Calma 5 Noroeste 0 1001.7 1.1 98
2018-07-02 06:00:00 15 0 Calma 4 Este 0 1001.2 0.5 97
2018-07-02 05:00:00 15.3 4 Sudeste 17 Sudoeste 0 1000.8 0.1 96
2018-07-02 04:00:00 16.9 11 Sudoeste 20 Sudoeste 0 1000.6 -0.1 94
2018-07-02 03:00:00 17.2 15 Sudoeste 22 Sudoeste 0 1000.7 -0.1 93
2018-07-02 02:00:00 17.8 13 Sudoeste 21 Sudoeste 0 1000.7 0.4 89
2018-07-02 01:00:00 18.5 13 Sudoeste 19 Sudoeste 0 1000.7 1.1 82
2018-07-02 00:00:00 19.4 15 Sudoeste 24 Sudoeste 0 1000.8 1.7 71
2018-07-01 23:00:00 20.5 14 Sudoeste 21 Oeste 0 1000.3 1.8 61
2018-07-01 22:00:00 21.9 12 Oeste 27 Oeste 0 999.6 1.2 55
2018-07-01 21:00:00 24.1 18 Oeste 34 Oeste 0 999.1 0.8 50
2018-07-01 20:00:00 25.7 21 Sudoeste 35 Sudoeste 0 998.5 0 46
2018-07-01 19:00:00 26.4 19 Oeste 36 Sudoeste 0 998.4 -0.5 45
2018-07-01 18:00:00 27.7 15 Oeste 33 Sudoeste 0 998.3 -0.8 43
2018-07-01 17:00:00 27.1 19 Sudoeste 31 Sudoeste 0 998.5 -1.1 43
2018-07-01 16:00:00 26.4 16 Sudoeste 34 Sudoeste 0 998.9 -0.9 45
2018-07-01 15:00:00 26.6 18 Sudoeste 31 Sudoeste 0 999.1 -0.6 46
2018-07-01 14:00:00 24.6 11 Oeste 25 Oeste 0 999.6 0.3 52
2018-07-01 13:00:00 23.6 14 Oeste 25 Oeste 0 999.8 0.5 57
2018-07-01 12:00:00 22.2 9 Oeste 22 Oeste 0 999.7 0.6 62
2018-07-01 11:00:00 21.7 8 Oeste 18 Oeste 0 999.3 0.6 71
2018-07-01 10:00:00 20 6 Oeste 17 Oeste 0 999.3 0.8 84
2018-07-01 09:00:00 18.6 9 Sudoeste 14 Sudoeste 0 999.1 1.2 89
2018-07-01 08:00:00 17.7 0 Calma 6 Oeste 0 998.7 1.2 98
2018-07-01 07:00:00 16.6 5 Oeste 6 Noroeste 0 998.5 1.1 98
2018-07-01 06:00:00 16.7 0 Calma 12 Oeste 0 997.9 0.4 95
2018-07-01 05:00:00 17.7 6 Oeste 14 Oeste 0 997.5 -0.1 96
2018-07-01 04:00:00 18.4 5 Oeste 18 Oeste 0 997.4 0 96
2018-07-01 03:00:00 18.7 12 Oeste 23 Oeste 0 997.5 0.5 94
2018-07-01 02:00:00 18.4 5 Sur 12 Sudoeste 0 997.6 1.4 86
2018-07-01 01:00:00 19.3 8 Oeste 13 Oeste 0 997.4 2.3 80
2018-07-01 00:00:00 20.2 6 Oeste 10 Oeste 0 997 1.9 72
2018-06-30 23:00:00 21.6 5 Oeste 21 Oeste 0 996.2 1.2 68
2018-06-30 22:00:00 22.9 15 Oeste 28 Sudoeste 0 995.1 0.5 66
2018-06-30 21:00:00 23.9 17 Sudoeste 31 Oeste 0 995.1 0.3 64
2018-06-30 20:00:00 24.8 19 Oeste 37 Sudoeste 0 995 0.4 63
2018-06-30 19:00:00 24.8 23 Oeste 39 Oeste 0 994.6 0 64
2018-06-30 18:00:00 26.8 22 Oeste 42 Sudoeste 0 994.8 0.3 58
2018-06-30 17:00:00 27.2 19 Oeste 39 Oeste 0 994.6 -0.3 50
2018-06-30 16:00:00 28.1 24 Sudoeste 40 Sudoeste 0 994.6 -0.4 45
2018-06-30 15:00:00 27.9 19 Oeste 38 Oeste 0 994.5 -0.5 50
2018-06-30 14:00:00 26.9 12 Oeste 27 Sudoeste 0 994.9 -0.3 57
2018-06-30 13:00:00 25.8 13 Oeste 27 Oeste 0 995 -0.1 60
2018-06-30 12:00:00 24.8 5 Oeste 20 Oeste 0 995 0.5 65
2018-06-30 11:00:00 21.5 9 Noroeste 17 Oeste 0 995.2 0.3 74
2018-06-30 10:00:00 21.5 0 Calma 13 Sur 0 995.1 0.3 75
2018-06-30 09:00:00 18.4 2 Sudeste 6 Sudeste 0 994.5 0.1 83
2018-06-30 08:00:00 16.9 0 Calma 6 Noroeste 0 994.9 0.2 85
2018-06-30 07:00:00 16.6 3 Oeste 5 Oeste 0 994.8 0.4 83
2018-06-30 06:00:00 17.4 0 Calma 5 Este 0 994.4 -0.5 82
2018-06-30 05:00:00 17.4 0 Calma 7 Sudoeste 0 994.7 0.1 82
2018-06-30 04:00:00 18.1 3 Sur 12 Sudoeste 0 994.4 0.1 79
2018-06-30 03:00:00 18.1 5 Sudeste 17 Sudoeste 0 994.9 1 76
2018-06-30 02:00:00 19.1 9 Sudoeste 25 Sudoeste 0 994.6 1.4 74
2018-06-30 01:00:00 20.5 13 Sudoeste 30 Sudoeste 0 994.3 1.8 67
2018-06-30 00:00:00 21.8 20 Sudoeste 32 Sudoeste 0 993.9 2.1 65
2018-06-29 23:00:00 23 17 Sudoeste 28 Oeste 0 993.2 1.9 61
2018-06-29 22:00:00 24.9 15 Oeste 33 Sudoeste 0 992.5 1.4 58
2018-06-29 21:00:00 27.8 16 Oeste 32 Oeste 0 991.8 0.4 52
2018-06-29 20:00:00 30.1 14 Oeste 26 Sudoeste 0 991.3 -0.5 46
2018-06-29 19:00:00 31.4 12 Oeste 24 Sudoeste 0 991.1 -1.1 42
2018-06-29 18:00:00 32 8 Oeste 25 Oeste 0 991.4 -1.3 41
2018-06-29 17:00:00 31.5 9 Sudoeste 25 Sudoeste 0 991.8 -1.7 41
2018-06-29 16:00:00 31.2 4 Sudoeste 18 Sudoeste 0 992.2 -2.3 42
2018-06-29 15:00:00 30.1 2 Sudoeste 21 Sudoeste 0 992.7 -1.9 49
2018-06-29 14:00:00 28 5 Noroeste 22 Oeste 0 993.5 -1.3 55
2018-06-29 13:00:00 26.5 4 Oeste 22 Sudoeste 0 994.5 -0.8 59
2018-06-29 12:00:00 24.7 5 Oeste 18 Sudoeste 0 994.6 -0.8 65
2018-06-29 11:00:00 22.7 7 Oeste 16 Noroeste 0 994.8 -0.7 69
2018-06-29 10:00:00 21.6 4 Sur 11 Sudoeste 0 995.3 0 68
2018-06-29 09:00:00 19.1 2 Sudeste 5 Sudeste 0 995.4 0.2 77
2018-06-29 08:00:00 15.6 4 Sudeste 5 Sudeste 0 995.5 -0.2 85
2018-06-29 07:00:00 14.4 2 Sur 4 Sur 0 995.3 -0.2 84
2018-06-29 06:00:00 15.5 0 Calma 5 Oeste 0 995.2 -0.7 82
2018-06-29 05:00:00 15.8 2 Noroeste 10 Noroeste 0 995.7 -0.7 80
2018-06-29 04:00:00 16.4 0 Calma 12 Sudoeste 0 995.5 -1.1 76
2018-06-29 03:00:00 17.5 9 Sudoeste 28 Sudoeste 0 995.9 -0.5 73
2018-06-29 02:00:00 17.7 5 Oeste 19 Sudoeste 0 996.4 0.3 70
2018-06-29 01:00:00 19.5 10 Sudoeste 28 Oeste 0 996.6 1.2 67
2018-06-29 00:00:00 20.4 16 Sudoeste 27 Oeste 0 996.4 1.3 66
2018-06-28 23:00:00 21.8 10 Oeste 24 Oeste 0 996.1 1.1 62
2018-06-28 22:00:00 23.9 11 Oeste 24 Sudoeste 0 995.4 0.2 51
2018-06-28 21:00:00 26.4 17 Sudoeste 30 Sudoeste 0 995.1 -0.6 48
2018-06-28 20:00:00 29.1 13 Oeste 27 Oeste 0 995 -1.2 44
2018-06-28 19:00:00 29.8 14 Oeste 30 Oeste 0 995.2 -1.5 46
2018-06-28 18:00:00 28.5 18 Oeste 35 Sudoeste 0 995.7 -1.5 52
2018-06-28 17:00:00 28.3 20 Oeste 37 Oeste 0 996.2 -1.8 55
2018-06-28 16:00:00 26.9 14 Oeste 28 Oeste 0 996.7 -1.7 56
2018-06-28 15:00:00 27.3 16 Oeste 32 Sudoeste 0 997.2 -1.3 53
2018-06-28 14:00:00 28.4 15 Oeste 24 Oeste 0 998 -0.7 52
2018-06-28 13:00:00 27.9 9 Oeste 19 Oeste 0 998.4 -0.8 55
2018-06-28 12:00:00 25.9 6 Oeste 15 Oeste 0 998.5 -0.7 60
2018-06-28 11:00:00 23.8 6 Sudoeste 17 Oeste 0 998.7 -0.6 70
2018-06-28 10:00:00 21.4 11 Oeste 18 Oeste 0 999.2 -0.1 76
2018-06-28 09:00:00 20.5 4 Oeste 12 Oeste 0 999.2 0.3 78
2018-06-28 08:00:00 17.3 2 Sudeste 5 Sudeste 0 999.3 0.5 80
2018-06-28 07:00:00 16.4 0 Calma 5 Sudeste 0 999.3 -0.1 80
2018-06-28 06:00:00 16.8 0 Calma 3 Este 0 998.9 -0.8 77
2018-06-28 05:00:00 17.2 0 Calma 5 Sudoeste 0 998.8 -1.2 74
2018-06-28 04:00:00 18 3 Oeste 5 Oeste 0 999.4 -0.5 71
2018-06-28 03:00:00 19 3 Sur 16 Oeste 0 999.7 -0.1 68
2018-06-28 02:00:00 20.6 9 Sudoeste 29 Oeste 0 1000 0.5 62
2018-06-28 01:00:00 21.4 22 Sudoeste 36 Sudoeste 0 999.9 0.9 61
2018-06-28 00:00:00 22.2 15 Sudoeste 35 Sudoeste 0 999.8 1.4 59
2018-06-27 23:00:00 24 23 Sudoeste 33 Sudoeste 0 999.5 1.2 53
2018-06-27 22:00:00 25.8 21 Sudoeste 36 Oeste 0 999 0.5 48
2018-06-27 21:00:00 29.5 20 Sudoeste 34 Oeste 0 998.4 -0.3 41
2018-06-27 20:00:00 31.9 15 Oeste 28 Oeste 0 998.3 -1 36
2018-06-27 19:00:00 32.5 12 Oeste 31 Oeste 0 998.5 -1.6 36
2018-06-27 18:00:00 32.9 14 Oeste 27 Oeste 0 998.7 -2 37
2018-06-27 17:00:00 32.6 11 Oeste 23 Oeste 0 999.3 -2.2 38
2018-06-27 16:00:00 31.6 10 Oeste 26 Oeste 0 1000.1 -2.2 43
2018-06-27 15:00:00 31.3 7 Oeste 22 Sudoeste 0 1000.7 -2.1 43
2018-06-27 14:00:00 29.7 6 Oeste 19 Noroeste 0 1001.5 -1.8 46
2018-06-27 13:00:00 28 7 Noroeste 14 Noroeste 0 1002.3 -1.4 52
2018-06-27 12:00:00 26.8 3 Sudoeste 13 Sudoeste 0 1002.8 -0.9 59
2018-06-27 11:00:00 24.4 4 Norte 11 Sudoeste 0 1003.3 -0.4 67
2018-06-27 10:00:00 22.6 5 Oeste 12 Oeste 0 1003.7 0.3 74
2018-06-27 09:00:00 21.6 3 Sudeste 10 Sur 0 1003.7 0.4 77
2018-06-27 08:00:00 18.5 0 Calma 4 Sudeste 0 1003.7 0.5 84
2018-06-27 07:00:00 17.8 0 Calma 6 Oeste 0 1003.4 0.2 84
2018-06-27 06:00:00 17.7 2 Sudeste 6 Sudoeste 0 1003.3 0.3 83
2018-06-27 05:00:00 18.5 5 Sudoeste 9 Sudoeste 0 1003.2 -0.1 81
2018-06-27 04:00:00 18.6 0 Calma 8 Sur 0 1003.2 0 80
2018-06-27 03:00:00 19.5 9 Sur 13 Sudoeste 0 1003 0.2 77
2018-06-27 02:00:00 20.3 3 Sudeste 21 Oeste 0 1003.3 1.1 74
2018-06-27 01:00:00 21.1 17 Sudoeste 30 Sudoeste 0 1003.2 2 74
2018-06-27 00:00:00 22 18 Oeste 36 Sudoeste 0 1002.8 2.4 72
2018-06-26 23:00:00 23.9 20 Sudoeste 41 Sudoeste 0 1002.2 2.2 64
2018-06-26 22:00:00 25.8 21 Oeste 40 Oeste 0 1001.2 1.5 59
2018-06-26 21:00:00 28.7 20 Oeste 37 Oeste 0 1000.4 0.5 52
2018-06-26 20:00:00 30.6 15 Oeste 29 Oeste 0 1000 -0.4 47
2018-06-26 19:00:00 32.1 14 Oeste 28 Oeste 0 999.7 -1.1 45
2018-06-26 18:00:00 32.1 13 Oeste 29 Sudoeste 0 999.9 -1.4 45
2018-06-26 17:00:00 31.3 12 Oeste 41 Oeste 0 1000.4 -1.4 47
2018-06-26 16:00:00 31.3 10 Sudoeste 26 Sudoeste 0 1000.8 -1.8 47
2018-06-26 15:00:00 30.6 10 Sudoeste 25 Oeste 0 1001.3 -1.8 48
2018-06-26 14:00:00 29.1 6 Sudoeste 17 Oeste 0 1001.8 -1.4 53
2018-06-26 13:00:00 26.8 5 Oeste 15 Noroeste 0 1002.6 -1 59
2018-06-26 12:00:00 25.6 6 Sudoeste 19 Sudoeste 0 1003.1 -0.7 62
2018-06-26 11:00:00 23.8 3 Oeste 11 Noroeste 0 1003.2 0 68
2018-06-26 10:00:00 21.1 7 Noroeste 12 Noroeste 0 1003.6 0.4 77
2018-06-26 09:00:00 19.9 6 Oeste 12 Oeste 0 1003.8 1.2 86
2018-06-26 08:00:00 17.8 4 Noroeste 7 Noroeste 0 1003.2 0.6 94
2018-06-26 07:00:00 16.8 0 Calma 3 Sur 0 1003.2 0.5 93
2018-06-26 06:00:00 17.7 0 Calma 8 Sudoeste 0 1002.6 -0.3 90
2018-06-26 05:00:00 18.1 8 Sudoeste 15 Sudoeste 0 1002.6 -0.7 90
2018-06-26 04:00:00 18.7 7 Sudoeste 23 Sudoeste 0 1002.7 -0.3 90
2018-06-26 03:00:00 19.1 14 Oeste 28 Oeste 0 1002.9 0.8 90
2018-06-26 02:00:00 19.8 11 Oeste 22 Oeste 0 1003.3 1.7 88
2018-06-26 01:00:00 20.8 8 Oeste 33 Sudoeste 0 1003 2.3 80
2018-06-26 00:00:00 22.2 15 Oeste 31 Sudoeste 0 1002.1 1.9 73
2018-06-25 23:00:00 24 22 Sudoeste 32 Sudoeste 0 1001.6 1.8 66
2018-06-25 22:00:00 25.5 18 Oeste 32 Oeste 0 1000.7 1.3 59
2018-06-25 21:00:00 27.8 17 Oeste 32 Oeste 0 1000.2 0.4 54
2018-06-25 20:00:00 29.7 14 Oeste 31 Oeste 0 999.8 -0.2 50
2018-06-25 19:00:00 30.7 14 Oeste 28 Oeste 0 999.4 -1 49
2018-06-25 18:00:00 31.2 14 Oeste 27 Oeste 0 999.8 -1.2 48
2018-06-25 17:00:00 31 12 Oeste 23 Noroeste 0 1000 -1.4 49
2018-06-25 16:00:00 31.2 10 Sudoeste 22 Oeste 0 1000.4 -1.3 49
2018-06-25 15:00:00 28.9 8 Noroeste 31 Noroeste 0 1001 -1.1 54
2018-06-25 14:00:00 27.4 8 Noroeste 18 Oeste 0 1001.4 -1 59
2018-06-25 13:00:00 26.3 0 Calma 17 Oeste 0 1001.7 -0.8 63
2018-06-25 12:00:00 24.8 5 Sudoeste 13 Noroeste 0 1002.1 -0.1 69
2018-06-25 11:00:00 23 4 Oeste 10 Oeste 0 1002.4 0.5 76
2018-06-25 10:00:00 21.4 3 Oeste 8 Oeste 0 1002.5 0.7 83
2018-06-25 09:00:00 20.5 2 Oeste 9 Oeste 0 1002.2 0.6 87
2018-06-25 08:00:00 19.7 5 Oeste 17 Oeste 0 1001.9 0.5 90
2018-06-25 07:00:00 19.3 9 Oeste 20 Sudoeste 0 1001.8 0.5 90
2018-06-25 06:00:00 19 9 Oeste 18 Oeste 0 1001.6 0.1 90
2018-06-25 05:00:00 19.4 6 Oeste 13 Oeste 0 1001.4 -0.2 87
2018-06-25 04:00:00 19.9 6 Oeste 17 Oeste 0 1001.3 0.3 85
2018-06-25 03:00:00 20.3 3 Oeste 21 Oeste 0 1001.5 1.3 85
2018-06-25 02:00:00 20.8 6 Oeste 24 Oeste 0 1001.6 2.2 84
2018-06-25 01:00:00 21.6 14 Oeste 36 Sudoeste 0 1001 2.6 80
2018-06-25 00:00:00 22.7 22 Sudoeste 40 Oeste 0 1000.2 2.8 76
2018-06-24 23:00:00 24.2 24 Sudoeste 40 Sudoeste 0 999.4 2.4 71
2018-06-24 22:00:00 25.7 21 Sudoeste 38 Sudoeste 0 998.4 1.7 66
2018-06-24 21:00:00 27.9 22 Oeste 41 Oeste 0 997.4 0.6 57
2018-06-24 20:00:00 31.9 17 Oeste 33 Oeste 0 997 0 44
2018-06-24 19:00:00 34.3 14 Oeste 28 Sudoeste 0 996.7 -0.7 38
2018-06-24 18:00:00 36 12 Oeste 28 Sudoeste 0 996.8 -1.4 36
2018-06-24 17:00:00 35.9 7 Noroeste 18 Sudoeste 0 997 -2 35
2018-06-24 16:00:00 35.5 5 Noroeste 20 Nordeste 0 997.4 -2.3 37
2018-06-24 15:00:00 34.4 6 Este 19 Este 0 998.2 -1.7 38
2018-06-24 14:00:00 33.6 3 Este 16 Sudeste 0 999 -1.1 40
2018-06-24 13:00:00 31.9 5 Sudeste 14 Sudeste 0 999.7 -0.5 43
2018-06-24 12:00:00 29.7 2 Noroeste 10 Norte 0 999.9 -0.1 49
2018-06-24 11:00:00 28 3 Oeste 7 Noroeste 0 1000.1 0.4 54
2018-06-24 10:00:00 26 0 Calma 7 Sudoeste 0 1000.2 0.4 61
2018-06-24 09:00:00 21.7 4 Este 7 Este 0 1000 0.5 72
2018-06-24 08:00:00 19 0 Calma 6 Sudeste 0 999.7 0.2 78
2018-06-24 07:00:00 17.8 6 Sudeste 10 Sudeste 0 999.8 0.4 80
2018-06-24 06:00:00 18.4 3 Sudeste 7 Sudeste 0 999.5 -0.1 76
2018-06-24 05:00:00 19.7 0 Calma 5 Sur 0 999.5 -0.1 68
2018-06-24 04:00:00 21.3 3 Sudeste 12 Sudeste 0 999.4 0.1 64
2018-06-24 03:00:00 22.6 3 Noroeste 27 Oeste 0 999.6 0.5 61
2018-06-24 02:00:00 24 14 Oeste 25 Oeste 0 999.6 1 57
2018-06-24 01:00:00 24.9 9 Oeste 21 Oeste 0 999.3 1.4 56
2018-06-24 00:00:00 26.4 12 Oeste 24 Oeste 0 999.1 1.6 55
2018-06-23 23:00:00 27.7 10 Sudoeste 26 Sudoeste 0 998.6 1.6 43
2018-06-23 22:00:00 29.3 18 Sudoeste 23 Sudoeste 0 997.9 1.1 31
2018-06-23 21:00:00 31.3 18 Sudoeste 29 Sur 0 997.5 0.5 31
2018-06-23 20:00:00 33.5 20 Sur 32 Sur 0 997 -0.3 30
2018-06-23 19:00:00 35.7 15 Sur 25 Sur 0 996.8 -1.3 30
2018-06-23 18:00:00 36.6 16 Sur 26 Sudoeste 0 997 -1.8 30
2018-06-23 17:00:00 36.6 8 Sur 18 Sudeste 0 997.3 -2.3 32
2018-06-23 16:00:00 35.6 3 Sudeste 18 Este 0 998.1 -2.2 34
2018-06-23 15:00:00 34.2 0 Calma 20 Este 0 998.8 -1.9 36
2018-06-23 14:00:00 33 8 Sudeste 15 Sudeste 0 999.6 -1.2 38
2018-06-23 13:00:00 31.8 6 Este 21 Nordeste 0 1000.3 -0.9 44
2018-06-23 12:00:00 28.4 6 Norte 13 Norte 0 1000.7 -0.5 51
2018-06-23 11:00:00 27.7 2 Este 11 Este 0 1000.8 -0.4 55
2018-06-23 10:00:00 24.6 5 Sudeste 10 Este 0 1001.2 0 65
2018-06-23 09:00:00 21.7 5 Sudeste 9 Sudeste 0 1001.2 0.2 76
2018-06-23 08:00:00 18.5 0 Calma 7 Sur 0 1001.2 0 85
2018-06-23 07:00:00 17.9 6 Sudeste 9 Sur 0 1001.2 -0.1 86
2018-06-23 06:00:00 18 3 Sudeste 9 Sur 0 1001 -0.5 85
2018-06-23 05:00:00 18.9 7 Sur 14 Sudoeste 0 1001.2 0 80
2018-06-23 04:00:00 20.2 3 Sudeste 8 Sudeste 0 1001.3 0.1 74
2018-06-23 03:00:00 21.3 6 Sur 25 Oeste 0 1001.5 0.5 72
2018-06-23 02:00:00 22.9 13 Oeste 24 Oeste 0 1001.2 1.3 66
2018-06-23 01:00:00 23.2 13 Oeste 24 Sudoeste 0 1001.2 2.3 66
2018-06-23 00:00:00 24.2 13 Sudoeste 29 Sudoeste 0 1001 2.9 62
2018-06-22 23:00:00 25.8 17 Sudoeste 31 Sudoeste 0 999.9 2.4 57
2018-06-22 22:00:00 27.8 19 Sudoeste 31 Oeste 0 998.9 1.1 50
2018-06-22 21:00:00 31.4 17 Sudoeste 30 Oeste 0 998.1 -0.2 42
2018-06-22 20:00:00 34.9 5 Oeste 11 Noroeste 0 997.5 -1.2 34
2018-06-22 19:00:00 34.9 4 Nordeste 17 Oeste 0 997.8 -1.7 34
2018-06-22 18:00:00 34.5 3 Nordeste 18 Noroeste 0 998.3 -1.5 35
2018-06-22 17:00:00 33.9 8 Oeste 17 Noroeste 0 998.7 -1.8 36
2018-06-22 16:00:00 32.9 6 Oeste 23 Sudeste 0 999.5 -1.9 37
2018-06-22 15:00:00 32.4 8 Sudeste 16 Este 0 999.8 -2.2 38
2018-06-22 14:00:00 31.5 5 Sudeste 16 Sudeste 0 1000.5 -1.7 41
2018-06-22 13:00:00 30.5 3 Sudeste 14 Este 0 1001.4 -0.9 44
2018-06-22 12:00:00 29.2 5 Sudeste 15 Sur 0 1002 -0.1 48
2018-06-22 11:00:00 26.6 6 Este 14 Este 0 1002.2 0.3 56
2018-06-22 10:00:00 23.5 5 Sudeste 9 Sudeste 0 1002.3 0.5 68
2018-06-22 09:00:00 21.4 3 Sudeste 6 Sudeste 0 1002.1 0.1 77
2018-06-22 08:00:00 19.2 0 Calma 6 Sudeste 0 1001.9 0.1 80
2018-06-22 07:00:00 18.4 4 Sur 9 Sudoeste 0 1001.8 -0.5 80
2018-06-22 06:00:00 19.1 5 Sur 12 Sudoeste 0 1002 -0.5 76
2018-06-22 05:00:00 19.7 2 Sudoeste 6 Sur 0 1001.8 -0.7 74
2018-06-22 04:00:00 20.4 0 Calma 12 Sudoeste 0 1002.3 0.1 71
2018-06-22 03:00:00 21.4 8 Sudoeste 18 Sudoeste 0 1002.5 0.7 68
2018-06-22 02:00:00 21.9 11 Sudoeste 19 Sudoeste 0 1002.5 1.4 65
2018-06-22 01:00:00 22.9 11 Sudoeste 18 Sudoeste 0 1002.2 2.4 61
2018-06-22 00:00:00 24.1 12 Sudoeste 27 Oeste 0 1001.8 2.9 57
2018-06-21 23:00:00 25.2 16 Oeste 40 Sudoeste 0 1001.1 2.9 55
2018-06-21 22:00:00 26.9 19 Oeste 39 Oeste 0 999.8 1.5 49
2018-06-21 21:00:00 30.9 18 Oeste 31 Sudoeste 0 998.9 0.3 39
2018-06-21 20:00:00 34 10 Oeste 18 Sur 0 998.2 -0.7 35
2018-06-21 19:00:00 34.8 4 Oeste 17 Oeste 0 998.3 -1.1 35
2018-06-21 18:00:00 34.4 8 Oeste 25 Noroeste 0 998.6 -1.3 35
2018-06-21 17:00:00 34.1 6 Oeste 22 Oeste 0 998.9 -1.3 35
2018-06-21 16:00:00 33.3 12 Noroeste 28 Oeste 0 999.4 -1.4 37
2018-06-21 15:00:00 33.3 10 Oeste 28 Oeste 0 999.9 -1.1 37
2018-06-21 14:00:00 32.8 10 Sur 24 Este 0 1000.2 -1 35
2018-06-21 13:00:00 31.9 12 Este 24 Este 0 1000.8 -0.9 37
2018-06-21 12:00:00 29.4 13 Este 26 Nordeste 0 1001 -0.9 40
2018-06-21 11:00:00 27.9 13 Este 20 Este 0 1001.2 -0.4 44
2018-06-21 10:00:00 23.4 9 Este 17 Este 0 1001.7 -0.3 71
2018-06-21 09:00:00 21.3 5 Este 8 Este 0 1001.9 0.4 82
2018-06-21 08:00:00 20.2 3 Este 5 Este 0 1001.6 0.6 85
2018-06-21 07:00:00 19.7 2 Sudoeste 11 Sudoeste 0 1002 0.1 85
2018-06-21 06:00:00 19.8 0 Calma 5 Sudeste 0 1001.5 -0.5 84
2018-06-21 05:00:00 20 3 Nordeste 9 Norte 0 1001 -1 84
2018-06-21 04:00:00 20.1 3 Noroeste 18 Sudoeste 0 1001.9 0.6 83
2018-06-21 03:00:00 20.3 14 Sudoeste 29 Sudoeste 0 1002 1.2 80
2018-06-21 02:00:00 21.3 13 Sudoeste 22 Sudoeste 0 1002 1.8 73
2018-06-21 01:00:00 22.7 15 Sudoeste 35 Sudoeste 0 1001.3 2.1 63
2018-06-21 00:00:00 23.9 20 Oeste 33 Sudoeste 0 1000.8 2.3 60
2018-06-20 23:00:00 25.9 22 Sudoeste 35 Sudoeste 0 1000.2 1.7 57
2018-06-20 22:00:00 27.7 13 Sudoeste 24 Sudoeste 0 999.2 1 35
2018-06-20 21:00:00 30.5 18 Sur 30 Sur 0 998.5 -0.1 33
2018-06-20 20:00:00 33 20 Sur 30 Sur 0 998.5 -0.4 31
2018-06-20 19:00:00 35.4 8 Oeste 17 Sudoeste 0 998.2 -1.2 31
2018-06-20 18:00:00 34.9 8 Sur 24 Sudoeste 0 998.6 -1.3 33
2018-06-20 17:00:00 34.4 6 Sudoeste 28 Sudoeste 0 998.9 -2.1 33
2018-06-20 16:00:00 34.9 17 Sur 39 Sudoeste 0 999.4 -2.2 32
2018-06-20 15:00:00 34.3 3 Sudeste 20 Sudeste 0 999.9 -2 36
2018-06-20 14:00:00 32.6 10 Sudeste 23 Sudeste 0 1001 -1.3 38
2018-06-20 13:00:00 31.4 8 Este 22 Sudeste 0 1001.6 -1.3 41
2018-06-20 12:00:00 29 9 Este 22 Este 0 1001.9 -0.8 47
2018-06-20 11:00:00 27.2 7 Sudeste 13 Sudeste 0 1002.3 -0.1 51
2018-06-20 10:00:00 25.3 5 Sudeste 11 Sudeste 0 1002.9 0.7 57
2018-06-20 09:00:00 22.3 4 Sudeste 8 Sudeste 0 1002.7 0.7 64
2018-06-20 08:00:00 19.9 0 Calma 6 Sudeste 0 1002.4 0.6 67
2018-06-20 07:00:00 19.2 5 Sudeste 21 Sur 0 1002.2 0.5 66
2018-06-20 06:00:00 19.9 6 Sur 18 Sur 0 1002 0.2 64
2018-06-20 05:00:00 21.3 15 Sur 32 Sur 0 1001.8 -0.1 62
2018-06-20 04:00:00 21.5 18 Sur 28 Sur 0 1001.7 0 61
2018-06-20 03:00:00 21.4 14 Sur 27 Sur 0 1001.8 0 61
2018-06-20 02:00:00 22 19 Sur 26 Sur 0 1001.9 0.2 58
2018-06-20 01:00:00 22.2 15 Sudoeste 26 Sur 0 1001.7 0.3 57
2018-06-20 00:00:00 22.9 16 Sur 25 Sur 0 1001.8 0.7 54
2018-06-19 23:00:00 23.8 18 Sur 28 Sur 0 1001.7 0.9 50
2018-06-19 22:00:00 25.2 14 Sur 30 Sur 0 1001.4 0.9 44
2018-06-19 21:00:00 27.7 17 Sur 38 Sur 0 1001.1 0.5 40
2018-06-19 20:00:00 30 20 Sur 36 Sur 0 1000.8 -0.4 36
2018-06-19 19:00:00 31.8 26 Sur 35 Sur 0 1000.5 -1.1 34
2018-06-19 18:00:00 32.8 23 Sur 38 Sur 0 1000.6 -1.2 33
2018-06-19 17:00:00 32.5 24 Sur 43 Sur 0 1001.2 -1.4 33
2018-06-19 16:00:00 33.2 25 Sur 42 Sur 0 1001.6 -1.3 34
2018-06-19 15:00:00 32.8 26 Sur 40 Sur 0 1001.8 -1.5 34
2018-06-19 14:00:00 32.8 21 Sur 31 Sur 0 1002.6 -1 35
2018-06-19 13:00:00 32 15 Sur 32 Sur 0 1002.9 -1 37
2018-06-19 12:00:00 30.6 4 Sudeste 18 Este 0 1003.3 -0.7 41
2018-06-19 11:00:00 28.9 3 Sudeste 16 Sudeste 0 1003.6 0 44
2018-06-19 10:00:00 26.4 3 Este 8 Nordeste 0 1003.9 0.5 49
2018-06-19 09:00:00 22 6 Sudeste 10 Sudeste 0 1004 1.1 60
2018-06-19 08:00:00 20.6 0 Calma 19 Sur 0 1003.6 0.7 60
2018-06-19 07:00:00 21.3 13 Sudoeste 24 Sudoeste 0 1003.4 0.8 55
2018-06-19 06:00:00 21.1 11 Sudoeste 16 Oeste 0 1002.9 0.1 59
2018-06-19 05:00:00 21.8 8 Sudoeste 16 Sudoeste 0 1002.9 0 62
2018-06-19 04:00:00 19.9 5 Noroeste 15 Sudoeste 0 1002.6 -0.7 76
2018-06-19 03:00:00 21.3 13 Sudoeste 20 Sudoeste 0 1002.8 0.1 72
2018-06-19 02:00:00 21.7 8 Sudoeste 17 Sudoeste 0 1002.9 1.3 69
2018-06-19 01:00:00 22.4 8 Sur 12 Sudoeste 0 1003.3 2.7 65
2018-06-19 00:00:00 24.1 10 Sudoeste 17 Sudoeste 0 1002.7 3 57
2018-06-18 23:00:00 26 9 Sudoeste 32 Oeste 0 1001.6 2.4 52
2018-06-18 22:00:00 27.8 19 Oeste 35 Oeste 0 1000.6 1.4 49
2018-06-18 21:00:00 32.1 18 Oeste 33 Sudoeste 0 999.7 0.2 40
2018-06-18 20:00:00 35.9 15 Sur 24 Sur 0 999.2 -0.7 31
2018-06-18 19:00:00 37.2 12 Este 22 Sudeste 0 999.2 -1.2 30
2018-06-18 18:00:00 38.2 5 Noroeste 17 Nordeste 0 999.5 -1.6 31
2018-06-18 17:00:00 37.5 10 Nordeste 18 Nordeste 0 999.9 -1.7 31
2018-06-18 16:00:00 37.3 4 Sudeste 19 Este 0 1000.4 -2.1 32
2018-06-18 15:00:00 36.3 7 Este 19 Este 0 1001.1 -1.7 33
2018-06-18 14:00:00 35.3 5 Sudeste 19 Sudeste 0 1001.6 -1.4 35
2018-06-18 13:00:00 33.7 5 Este 19 Este 0 1002.5 -0.8 36
2018-06-18 12:00:00 31.8 7 Este 15 Este 0 1002.8 -0.4 40
2018-06-18 11:00:00 29.4 6 Este 11 Este 0 1003 -0.3 45
2018-06-18 10:00:00 26.6 3 Este 12 Este 0 1003.3 0.2 48
2018-06-18 09:00:00 23.7 3 Este 6 Este 0 1003.2 0.3 53
2018-06-18 08:00:00 20.1 3 Sur 5 Sur 0 1003.3 0.8 57
2018-06-18 07:00:00 19.1 0 Calma 7 Oeste 0 1003.1 0.1 57
2018-06-18 06:00:00 19.8 0 Calma 11 Oeste 0 1002.9 0.1 55
2018-06-18 05:00:00 21.6 11 Sudoeste 18 Sudoeste 0 1002.5 0.2 52
2018-06-18 04:00:00 20.9 5 Sur 14 Sur 0 1003 0.6 50
2018-06-18 03:00:00 21.7 9 Sudoeste 13 Sudoeste 0 1002.8 0.2 49
2018-06-18 02:00:00 23.3 0 Calma 9 Sur 0 1002.3 0.2 45
2018-06-18 01:00:00 23.8 3 Sur 8 Sur 0 1002.4 1.1 42
2018-06-18 00:00:00 25.5 6 Sur 28 Sudoeste 0 1002.6 1.8 38
2018-06-17 23:00:00 27.8 18 Sudoeste 24 Sudoeste 0 1002.1 1.5 35
2018-06-17 22:00:00 29.8 15 Sudoeste 20 Sudoeste 0 1001.3 0.9 33
2018-06-17 21:00:00 34 10 Sur 17 Sur 0 1000.8 0.1 31
2018-06-17 20:00:00 37.1 4 Sur 13 Sudeste 0 1000.6 -0.3 30
2018-06-17 19:00:00 37.1 4 Sudeste 17 Sudeste 0 1000.4 -0.9 31
2018-06-17 18:00:00 37.2 3 Norte 13 Sudeste 0 1000.7 -0.9 32
2018-06-17 17:00:00 36.8 5 Sur 16 Sudeste 0 1000.9 -1.2 33
2018-06-17 16:00:00 36.2 3 Sur 13 Nordeste 0 1001.3 -1 33
2018-06-17 15:00:00 34.6 5 Sudeste 14 Sur 0 1001.6 -0.9 35
2018-06-17 14:00:00 33.3 3 Oeste 17 Sudeste 0 1002.1 -0.6 37
2018-06-17 13:00:00 31.2 4 Noroeste 13 Sudeste 0 1002.3 -0.2 40
2018-06-17 12:00:00 30.1 3 Sudeste 11 Este 0 1002.5 0 43
2018-06-17 11:00:00 28.1 4 Este 9 Este 0 1002.7 0.7 49
2018-06-17 10:00:00 25.3 3 Sudeste 9 Sudeste 0 1002.5 0.8 57
2018-06-17 09:00:00 22 4 Este 6 Sudeste 0 1002.5 1.3 63
2018-06-17 08:00:00 19 2 Sudeste 6 Sur 0 1002 1.4 70
2018-06-17 07:00:00 17.5 2 Sur 6 Sudeste 0 1001.7 1.2 71
2018-06-17 06:00:00 18.2 5 Sudeste 9 Sur 0 1001.2 0.9 69
2018-06-17 05:00:00 18.7 2 Sur 8 Sudeste 0 1000.6 0.6 67
2018-06-17 04:00:00 20.4 3 Sudoeste 14 Sudoeste 0 1000.5 0.7 63
2018-06-17 03:00:00 20 10 Sudoeste 12 Sudoeste 0 1000.3 0.8 65
2018-06-17 02:00:00 20.4 8 Sur 9 Sur 0 1000 1.1 62
2018-06-17 01:00:00 22.8 6 Sur 18 Sudoeste 0 999.8 1.9 55
2018-06-17 00:00:00 24.9 15 Sudoeste 26 Sudoeste 0 999.5 2.4 50